createdAt,value
2023-05-04T00:00:01.955Z,63.5828
2023-05-04T00:01:02.340Z,63.7775
2023-05-04T00:02:02.683Z,63.2722
2023-05-04T00:03:03.177Z,63.3427
2023-05-04T00:04:03.708Z,63.0959
2023-05-04T00:05:04.087Z,62.7850
2023-05-04T00:06:04.511Z,62.8838
2023-05-04T00:07:04.852Z,62.4723
2023-05-04T00:08:05.251Z,63.0850
2023-05-04T00:09:05.626Z,64.3172
2023-05-04T00:10:06.151Z,63.6439
2023-05-04T00:11:06.664Z,63.1041
2023-05-04T00:12:07.099Z,63.1804
2023-05-04T00:13:07.548Z,64.6721
2023-05-04T00:14:07.873Z,62.9644
2023-05-04T00:15:08.217Z,64.3320
2023-05-04T00:16:10.923Z,64.4311
2023-05-04T00:17:11.476Z,63.3333
2023-05-04T00:18:11.856Z,63.5592
2023-05-04T00:19:12.254Z,63.3500
2023-05-04T00:20:12.636Z,64.3637
2023-05-04T00:21:12.985Z,63.8305
2023-05-04T00:22:13.355Z,66.5461
2023-05-04T00:23:13.731Z,65.9762
2023-05-04T00:24:14.124Z,65.1152
2023-05-04T00:25:14.473Z,64.6990
2023-05-04T00:26:14.910Z,65.3996
2023-05-04T00:27:15.318Z,64.6022
2023-05-04T00:28:15.686Z,64.5763
2023-05-04T00:29:16.035Z,64.4778
2023-05-04T00:30:16.398Z,63.7864
2023-05-04T00:31:16.783Z,64.4445
2023-05-04T00:32:17.168Z,66.7598
2023-05-04T00:33:17.534Z,65.3518
2023-05-04T00:34:17.887Z,65.0362
2023-05-04T00:35:18.238Z,66.7455
2023-05-04T00:36:18.585Z,68.0313
2023-05-04T00:37:18.963Z,66.0001
2023-05-04T00:38:19.438Z,65.8582
2023-05-04T00:39:19.790Z,65.8600
2023-05-04T00:40:20.160Z,67.9483
2023-05-04T00:41:20.486Z,67.0119
2023-05-04T00:42:20.924Z,66.7151
2023-05-04T00:43:21.254Z,67.8149
2023-05-04T00:44:21.651Z,69.6472
2023-05-04T00:45:22.009Z,70.7176
2023-05-04T00:46:22.394Z,71.7186
2023-05-04T00:47:23.230Z,70.8793
2023-05-04T00:48:23.741Z,71.8168
2023-05-04T00:49:24.210Z,70.4972
2023-05-04T00:50:24.655Z,71.0842
2023-05-04T00:51:24.998Z,69.8813
2023-05-04T00:52:25.387Z,69.0063
2023-05-04T00:53:25.746Z,70.4362
2023-05-04T00:54:26.110Z,69.6834
2023-05-04T00:55:26.492Z,68.8601
2023-05-04T00:56:26.825Z,67.9946
2023-05-04T00:57:27.154Z,67.7430
2023-05-04T00:58:27.540Z,68.7511
2023-05-04T00:59:27.913Z,67.1767
2023-05-04T01:00:28.297Z,67.8468
2023-05-04T01:01:28.764Z,67.4863
2023-05-04T01:02:29.255Z,67.5347
2023-05-04T01:03:29.598Z,67.3681
2023-05-04T01:04:29.953Z,67.0905
2023-05-04T01:05:30.314Z,67.8802
2023-05-04T01:06:30.684Z,67.3388
2023-05-04T01:07:31.073Z,66.3014
2023-05-04T01:08:31.477Z,68.4778
2023-05-04T01:09:31.903Z,70.0062
2023-05-04T01:10:32.242Z,69.7916
2023-05-04T01:11:32.622Z,69.2130
2023-05-04T01:12:33.029Z,69.3440
2023-05-04T01:13:33.371Z,69.7767
2023-05-04T01:14:33.727Z,69.1410
2023-05-04T01:15:34.123Z,69.2434
2023-05-04T01:16:34.538Z,68.7800
2023-05-04T01:17:34.975Z,70.8748
2023-05-04T01:18:35.309Z,68.6936
2023-05-04T01:19:35.657Z,69.0744
2023-05-04T01:20:36.031Z,70.5536
2023-05-04T01:21:36.370Z,69.8592
2023-05-04T01:22:36.721Z,68.7511
2023-05-04T01:23:37.097Z,68.7488
2023-05-04T01:24:37.515Z,68.4481
2023-05-04T01:25:37.880Z,68.4499
2023-05-04T01:26:38.241Z,68.5641
2023-05-04T01:27:38.637Z,67.8104
2023-05-04T01:28:39.021Z,67.6546
2023-05-04T01:29:39.378Z,66.9675
2023-05-04T01:30:39.821Z,66.8388
2023-05-04T01:31:40.139Z,66.6451
2023-05-04T01:32:40.706Z,66.9578
2023-05-04T01:33:41.030Z,66.8611
2023-05-04T01:34:41.434Z,66.3122
2023-05-04T01:35:41.770Z,66.9379
2023-05-04T01:36:42.134Z,66.9362
2023-05-04T01:37:42.490Z,67.5003
2023-05-04T01:38:42.897Z,66.3584
2023-05-04T01:39:43.318Z,66.0732
2023-05-04T01:40:43.680Z,66.1040
2023-05-04T01:41:44.026Z,65.7495
2023-05-04T01:42:44.393Z,65.5639
2023-05-04T01:43:44.752Z,65.0558
2023-05-04T01:44:45.120Z,66.1001
2023-05-04T01:45:45.501Z,67.2819
2023-05-04T01:46:45.898Z,66.6031
2023-05-04T01:47:46.241Z,65.8264
2023-05-04T01:48:46.620Z,66.4833
2023-05-04T01:49:47.013Z,65.9276
2023-05-04T01:50:47.389Z,67.7675
2023-05-04T01:51:47.799Z,68.4905
2023-05-04T01:52:48.178Z,67.4297
2023-05-04T01:53:48.519Z,67.2176
2023-05-04T01:54:48.935Z,68.5166
2023-05-04T01:55:49.274Z,68.0876
2023-05-04T01:56:49.701Z,69.5118
2023-05-04T01:57:50.046Z,70.6810
2023-05-04T01:58:50.459Z,69.9287
2023-05-04T01:59:50.816Z,70.7409
2023-05-04T02:00:51.167Z,71.4121
2023-05-04T02:01:51.550Z,72.2145
2023-05-04T02:02:52.019Z,70.1918
2023-05-04T02:03:52.451Z,72.0122
2023-05-04T02:04:52.834Z,72.6013
2023-05-04T02:05:53.216Z,73.2759
2023-05-04T02:06:53.577Z,73.0712
2023-05-04T02:07:53.957Z,73.2208
2023-05-04T02:08:54.358Z,73.4891
2023-05-04T02:09:54.713Z,74.0021
2023-05-04T02:10:55.068Z,73.7942
2023-05-04T02:11:55.450Z,74.8385
2023-05-04T02:12:55.826Z,73.7719
2023-05-04T02:13:56.216Z,72.8264
2023-05-04T02:14:56.581Z,71.6805
2023-05-04T02:15:57.027Z,71.5718
2023-05-04T02:16:57.349Z,71.5157
2023-05-04T02:17:57.793Z,72.4464
2023-05-04T02:18:58.164Z,71.5540
2023-05-04T02:19:58.536Z,71.7349
2023-05-04T02:20:58.944Z,73.4204
2023-05-04T02:21:59.310Z,71.5765
2023-05-04T02:22:59.642Z,72.1882
2023-05-04T02:24:00.058Z,73.8147
2023-05-04T02:25:00.445Z,74.7915
2023-05-04T02:26:00.817Z,75.2689
2023-05-04T02:27:01.155Z,75.9280
2023-05-04T02:28:01.542Z,75.7288
2023-05-04T02:29:01.943Z,75.8518
2023-05-04T02:30:02.527Z,76.1514
2023-05-04T02:31:03.007Z,76.2936
2023-05-04T02:32:03.580Z,75.4321
2023-05-04T02:33:04.020Z,74.3757
2023-05-04T02:34:04.393Z,74.1242
2023-05-04T02:35:04.790Z,74.3537
2023-05-04T02:36:05.157Z,73.9274
2023-05-04T02:37:07.312Z,74.4274
2023-05-04T02:38:07.890Z,75.4257
2023-05-04T02:39:08.297Z,75.2912
2023-05-04T02:40:08.649Z,76.1090
2023-05-04T02:41:08.994Z,76.4000
2023-05-04T02:42:09.382Z,76.0635
2023-05-04T02:43:09.721Z,75.3419
2023-05-04T02:44:10.124Z,74.7734
2023-05-04T02:45:10.563Z,75.7102
2023-05-04T02:46:10.953Z,75.4867
2023-05-04T02:47:11.270Z,74.7834
2023-05-04T02:48:11.639Z,74.1902
2023-05-04T02:49:11.995Z,74.8196
2023-05-04T02:50:12.408Z,75.3964
2023-05-04T02:51:12.750Z,74.4837
2023-05-04T02:52:13.143Z,72.9061
2023-05-04T02:53:13.497Z,72.1837
2023-05-04T02:54:13.899Z,72.4825
2023-05-04T02:55:14.308Z,72.8512
2023-05-04T02:56:14.682Z,72.2323
2023-05-04T02:57:15.054Z,71.2569
2023-05-04T02:58:15.446Z,71.5285
2023-05-04T02:59:15.836Z,71.3470
2023-05-04T03:00:16.323Z,73.3701
2023-05-04T03:01:16.688Z,74.3113
2023-05-04T03:02:17.036Z,74.5333
2023-05-04T03:03:17.398Z,75.4717
2023-05-04T03:04:17.831Z,75.3826
2023-05-04T03:05:18.168Z,74.8063
2023-05-04T03:06:18.562Z,74.0693
2023-05-04T03:07:18.959Z,75.2812
2023-05-04T03:08:19.327Z,73.9662
2023-05-04T03:09:19.672Z,72.4442
2023-05-04T03:10:20.085Z,73.3923
2023-05-04T03:11:20.425Z,72.5874
2023-05-04T03:12:20.837Z,71.9602
2023-05-04T03:13:21.232Z,71.3091
2023-05-04T03:14:21.599Z,70.9922
2023-05-04T03:15:21.994Z,70.9988
2023-05-04T03:16:22.524Z,70.0756
2023-05-04T03:17:22.847Z,69.4040
2023-05-04T03:18:23.278Z,68.9098
2023-05-04T03:19:23.622Z,68.8585
2023-05-04T03:20:24.029Z,68.8548
2023-05-04T03:21:24.406Z,68.7338
2023-05-04T03:22:24.801Z,68.9186
2023-05-04T03:23:25.233Z,68.4555
2023-05-04T03:24:25.593Z,69.5991
2023-05-04T03:25:25.961Z,69.7897
2023-05-04T03:26:26.346Z,68.9364
2023-05-04T03:27:26.784Z,70.2603
2023-05-04T03:28:27.146Z,70.8900
2023-05-04T03:29:27.561Z,69.7681
2023-05-04T03:30:27.973Z,69.5811
2023-05-04T03:31:28.308Z,69.6933
2023-05-04T03:32:28.710Z,68.9716
2023-05-04T03:33:29.062Z,68.9812
2023-05-04T03:34:29.460Z,68.8905
2023-05-04T03:35:29.813Z,69.0080
2023-05-04T03:36:30.232Z,71.1449
2023-05-04T03:37:30.624Z,69.7277
2023-05-04T03:38:30.987Z,70.3007
2023-05-04T03:39:31.344Z,72.3340
2023-05-04T03:40:31.734Z,71.4602
2023-05-04T03:41:32.131Z,70.9661
2023-05-04T03:42:32.511Z,71.1311
2023-05-04T03:43:32.881Z,70.7562
2023-05-04T03:44:33.320Z,71.6203
2023-05-04T03:45:33.665Z,72.9261
2023-05-04T03:46:34.117Z,73.3438
2023-05-04T03:47:34.465Z,72.0063
2023-05-04T03:48:34.866Z,73.6528
2023-05-04T03:49:35.229Z,73.5087
2023-05-04T03:50:35.624Z,74.3165
2023-05-04T03:51:35.972Z,74.4613
2023-05-04T03:52:36.372Z,74.0203
2023-05-04T03:53:36.783Z,73.1444
2023-05-04T03:54:37.195Z,73.8134
2023-05-04T03:55:37.591Z,73.7130
2023-05-04T03:56:37.963Z,72.8922
2023-05-04T03:57:38.328Z,72.1431
2023-05-04T03:58:38.724Z,71.7064
2023-05-04T03:59:39.122Z,71.1468
2023-05-04T04:00:39.557Z,71.7000
2023-05-04T04:01:39.915Z,72.7286
2023-05-04T04:02:40.405Z,71.7232
2023-05-04T04:03:40.873Z,73.1363
2023-05-04T04:04:41.307Z,73.7803
2023-05-04T04:05:41.723Z,73.5201
2023-05-04T04:06:43.449Z,74.0693
2023-05-04T04:07:43.923Z,73.2785
2023-05-04T04:08:44.337Z,74.6828
2023-05-04T04:09:44.736Z,74.7261
2023-05-04T04:10:45.096Z,74.5608
2023-05-04T04:11:45.465Z,73.8120
2023-05-04T04:12:45.889Z,74.8017
2023-05-04T04:13:46.223Z,74.2139
2023-05-04T04:14:46.696Z,74.6837
2023-05-04T04:15:47.139Z,74.9923
2023-05-04T04:16:47.561Z,75.2128
2023-05-04T04:17:47.926Z,73.4162
2023-05-04T04:18:48.302Z,73.3817
2023-05-04T04:19:48.673Z,72.7823
2023-05-04T04:20:49.051Z,72.6010
2023-05-04T04:21:49.390Z,71.9612
2023-05-04T04:22:49.800Z,71.9019
2023-05-04T04:23:50.157Z,73.1826
2023-05-04T04:24:50.585Z,72.0114
2023-05-04T04:25:50.943Z,71.5623
2023-05-04T04:26:51.317Z,73.3759
2023-05-04T04:27:51.706Z,73.0258
2023-05-04T04:28:52.065Z,72.8730
2023-05-04T04:29:52.461Z,74.2273
2023-05-04T04:30:52.912Z,73.9614
2023-05-04T04:31:53.291Z,74.4289
2023-05-04T04:32:53.698Z,73.3323
2023-05-04T04:33:54.069Z,73.6372
2023-05-04T04:34:54.442Z,72.8543
2023-05-04T04:35:54.799Z,74.8627
2023-05-04T04:36:55.192Z,73.1444
2023-05-04T04:37:55.545Z,75.7092
2023-05-04T04:38:56.020Z,76.1964
2023-05-04T04:39:56.377Z,76.7724
2023-05-04T04:40:56.790Z,77.4384
2023-05-04T04:41:57.148Z,77.8193
2023-05-04T04:42:57.562Z,77.0264
2023-05-04T04:43:57.966Z,77.3504
2023-05-04T04:44:58.396Z,77.0169
2023-05-04T04:45:58.793Z,77.7870
2023-05-04T04:46:59.144Z,77.8728
2023-05-04T04:47:59.551Z,76.9290
2023-05-04T04:48:59.908Z,76.3209
2023-05-04T04:50:00.274Z,75.1101
2023-05-04T04:51:00.674Z,75.3147
2023-05-04T04:52:01.016Z,76.6703
2023-05-04T04:53:01.415Z,77.6898
2023-05-04T04:54:01.774Z,77.8667
2023-05-04T04:55:02.186Z,77.9034
2023-05-04T04:56:02.556Z,76.4595
2023-05-04T04:57:02.918Z,77.8852
2023-05-04T04:58:03.334Z,78.0563
2023-05-04T04:59:03.724Z,78.4872
2023-05-04T05:00:04.574Z,78.4098
2023-05-04T05:01:05.142Z,78.5001
2023-05-04T05:02:05.460Z,78.8321
2023-05-04T05:03:05.869Z,78.7672
2023-05-04T05:04:06.282Z,78.3356
2023-05-04T05:05:06.828Z,78.3101
2023-05-04T05:06:07.213Z,78.1505
2023-05-04T05:07:07.663Z,78.6679
2023-05-04T05:08:08.048Z,78.7438
2023-05-04T05:09:08.440Z,78.4576
2023-05-04T05:10:08.952Z,78.6647
2023-05-04T05:11:09.293Z,78.8420
2023-05-04T05:12:09.671Z,78.5178
2023-05-04T05:13:10.122Z,78.6069
2023-05-04T05:14:10.494Z,78.6515
2023-05-04T05:15:10.857Z,78.3649
2023-05-04T05:16:11.254Z,78.4088
2023-05-04T05:17:11.606Z,78.7904
2023-05-04T05:18:12.063Z,78.7904
2023-05-04T05:19:12.414Z,78.9387
2023-05-04T05:20:12.807Z,78.4217
2023-05-04T05:21:13.208Z,78.1539
2023-05-04T05:22:13.584Z,77.6860
2023-05-04T05:23:13.997Z,75.8623
2023-05-04T05:24:14.361Z,76.8861
2023-05-04T05:25:14.750Z,76.3792
2023-05-04T05:26:15.148Z,75.3616
2023-05-04T05:27:15.517Z,74.1467
2023-05-04T05:28:15.917Z,73.5201
2023-05-04T05:29:16.289Z,72.5736
2023-05-04T05:30:16.660Z,73.6902
2023-05-04T05:31:17.009Z,72.7540
2023-05-04T05:32:17.391Z,74.6238
2023-05-04T05:33:17.898Z,75.2329
2023-05-04T05:34:18.272Z,74.6845
2023-05-04T05:35:18.632Z,74.7401
2023-05-04T05:36:19.000Z,75.4864
2023-05-04T05:37:19.423Z,73.1075
2023-05-04T05:38:19.785Z,72.6053
2023-05-04T05:39:20.178Z,72.8240
2023-05-04T05:40:20.653Z,72.0619
2023-05-04T05:41:21.018Z,71.7021
2023-05-04T05:42:21.365Z,72.4053
2023-05-04T05:43:21.733Z,72.7903
2023-05-04T05:44:22.138Z,71.5868
2023-05-04T05:45:22.546Z,71.4692
2023-05-04T05:46:22.996Z,70.7002
2023-05-04T05:47:23.394Z,71.3969
2023-05-04T05:48:23.697Z,71.0344
2023-05-04T05:49:24.128Z,71.0940
2023-05-04T05:50:24.479Z,73.0137
2023-05-04T05:51:24.880Z,72.4232
2023-05-04T05:52:25.243Z,72.6479
2023-05-04T05:53:25.667Z,71.9785
2023-05-04T05:54:26.036Z,71.0703
2023-05-04T05:55:26.417Z,71.4636
2023-05-04T05:56:26.822Z,70.6389
2023-05-04T05:57:27.213Z,70.4927
2023-05-04T05:58:27.631Z,69.9020
2023-05-04T05:59:28.015Z,69.6796
2023-05-04T06:00:28.422Z,70.0423
2023-05-04T06:01:28.877Z,70.8352
2023-05-04T06:02:29.257Z,71.0152
2023-05-04T06:03:30.782Z,70.5454
2023-05-04T06:04:31.212Z,70.3507
2023-05-04T06:05:32.572Z,71.3803
2023-05-04T06:06:32.968Z,69.8803
2023-05-04T06:07:33.337Z,70.1010
2023-05-04T06:08:33.754Z,70.7661
2023-05-04T06:09:34.165Z,69.7865
2023-05-04T06:10:34.524Z,69.4416
2023-05-04T06:11:34.900Z,70.0481
2023-05-04T06:12:35.294Z,69.3879
2023-05-04T06:13:35.726Z,70.2769
2023-05-04T06:14:36.118Z,69.9550
2023-05-04T06:15:36.542Z,70.9378
2023-05-04T06:16:36.967Z,71.7359
2023-05-04T06:17:37.350Z,71.1015
2023-05-04T06:18:37.682Z,72.1041
2023-05-04T06:19:38.113Z,71.1366
2023-05-04T06:20:38.489Z,71.3842
2023-05-04T06:21:38.894Z,73.0633
2023-05-04T06:22:39.259Z,71.4011
2023-05-04T06:23:39.624Z,71.5138
2023-05-04T06:24:40.040Z,71.4796
2023-05-04T06:25:40.399Z,70.7427
2023-05-04T06:26:40.820Z,70.4581
2023-05-04T06:27:41.197Z,72.0977
2023-05-04T06:28:41.558Z,72.1562
2023-05-04T06:29:41.982Z,71.5215
2023-05-04T06:30:42.324Z,71.9283
2023-05-04T06:31:42.813Z,71.9727
2023-05-04T06:32:43.223Z,70.2419
2023-05-04T06:33:43.615Z,70.0318
2023-05-04T06:34:43.966Z,70.5500
2023-05-04T06:35:44.365Z,72.1119
2023-05-04T06:36:44.823Z,70.6131
2023-05-04T06:37:45.258Z,70.9756
2023-05-04T06:38:45.638Z,70.7650
2023-05-04T06:39:45.978Z,69.8850
2023-05-04T06:40:46.397Z,69.9478
2023-05-04T06:41:46.826Z,70.4268
2023-05-04T06:42:47.165Z,70.1331
2023-05-04T06:43:47.520Z,69.5721
2023-05-04T06:44:47.923Z,69.9277
2023-05-04T06:45:48.291Z,71.3125
2023-05-04T06:46:48.693Z,70.0233
2023-05-04T06:47:49.092Z,70.7055
2023-05-04T06:48:49.464Z,69.8297
2023-05-04T06:49:49.812Z,68.4388
2023-05-04T06:50:50.230Z,68.0702
2023-05-04T06:51:50.636Z,68.4699
2023-05-04T06:52:51.008Z,68.9899
2023-05-04T06:53:51.408Z,69.5765
2023-05-04T06:54:51.840Z,70.4999
2023-05-04T06:55:52.195Z,71.5222
2023-05-04T06:56:52.624Z,71.5852
2023-05-04T06:57:53.033Z,71.7585
2023-05-04T06:58:53.406Z,72.1890
2023-05-04T06:59:53.801Z,72.0601
2023-05-04T07:00:54.173Z,71.5279
2023-05-04T07:01:54.581Z,71.0615
2023-05-04T07:02:54.973Z,71.2322
2023-05-04T07:03:55.393Z,71.7320
2023-05-04T07:04:55.761Z,72.9224
2023-05-04T07:05:56.191Z,72.1202
2023-05-04T07:06:56.563Z,72.3600
2023-05-04T07:07:56.928Z,72.4314
2023-05-04T07:08:57.307Z,72.5140
2023-05-04T07:09:57.717Z,72.7961
2023-05-04T07:10:58.109Z,73.0716
2023-05-04T07:11:58.483Z,73.6717
2023-05-04T07:12:58.972Z,73.0333
2023-05-04T07:13:59.282Z,73.1967
2023-05-04T07:14:59.700Z,73.2770
2023-05-04T07:16:00.166Z,73.5789
2023-05-04T07:17:00.557Z,73.0356
2023-05-04T07:18:00.892Z,72.5097
2023-05-04T07:19:01.277Z,72.0076
2023-05-04T07:20:01.820Z,72.2208
2023-05-04T07:21:21.882Z,71.0018
2023-05-04T07:22:05.247Z,71.2590
2023-05-04T07:23:05.655Z,70.5875
2023-05-04T07:24:06.087Z,71.8307
2023-05-04T07:25:06.455Z,75.1305
2023-05-04T07:26:06.797Z,73.9968
2023-05-04T07:27:07.215Z,72.2019
2023-05-04T07:28:07.569Z,71.8263
2023-05-04T07:29:07.984Z,72.3657
2023-05-04T07:30:08.411Z,71.6325
2023-05-04T07:31:08.804Z,72.4831
2023-05-04T07:32:09.323Z,72.2146
2023-05-04T07:33:09.780Z,71.4685
2023-05-04T07:34:10.198Z,71.4911
2023-05-04T07:35:10.618Z,73.8716
2023-05-04T07:36:11.015Z,73.1514
2023-05-04T07:37:11.522Z,72.7892
2023-05-04T07:38:11.989Z,71.7468
2023-05-04T07:39:12.425Z,71.2005
2023-05-04T07:40:12.805Z,73.6813
2023-05-04T07:41:13.239Z,73.1069
2023-05-04T07:42:13.647Z,70.9968
2023-05-04T07:43:14.013Z,70.4858
2023-05-04T07:44:14.494Z,70.5871
2023-05-04T07:45:14.907Z,70.4313
2023-05-04T07:46:15.396Z,70.9327
2023-05-04T07:47:15.862Z,71.0803
2023-05-04T07:48:17.806Z,71.1176
2023-05-04T07:49:18.488Z,70.6565
2023-05-04T07:50:18.904Z,70.1804
2023-05-04T07:51:19.334Z,69.7870
2023-05-04T07:52:19.744Z,71.5824
2023-05-04T07:53:20.187Z,71.5693
2023-05-04T07:54:22.828Z,70.6827
2023-05-04T07:55:23.523Z,69.2732
2023-05-04T07:56:23.978Z,68.9425
2023-05-04T07:57:24.382Z,68.1773
2023-05-04T07:58:24.766Z,68.4733
2023-05-04T07:59:25.223Z,69.3562
2023-05-04T08:00:25.631Z,69.0072
2023-05-04T08:01:26.082Z,68.8153
2023-05-04T08:02:26.622Z,69.9589
2023-05-04T08:03:27.039Z,70.7981
2023-05-04T08:04:27.433Z,69.3285
2023-05-04T08:05:27.875Z,69.2418
2023-05-04T08:06:28.339Z,68.7015
2023-05-04T08:07:28.754Z,69.0362
2023-05-04T08:08:29.220Z,68.2535
2023-05-04T08:09:29.622Z,68.7378
2023-05-04T08:10:30.009Z,69.0840
2023-05-04T08:11:30.507Z,67.6158
2023-05-04T08:12:30.958Z,66.6531
2023-05-04T08:13:31.328Z,67.3647
2023-05-04T08:14:31.785Z,68.4967
2023-05-04T08:15:32.197Z,67.8808
2023-05-04T08:16:32.653Z,66.9687
2023-05-04T08:17:33.083Z,66.9678
2023-05-04T08:18:33.493Z,67.8990
2023-05-04T08:19:33.965Z,69.6054
2023-05-04T08:20:34.434Z,69.1129
2023-05-04T08:21:34.766Z,68.3806
2023-05-04T08:22:35.223Z,67.6748
2023-05-04T08:23:35.629Z,67.5484
2023-05-04T08:24:36.097Z,67.2764
2023-05-04T08:25:36.520Z,67.5354
2023-05-04T08:26:36.892Z,67.2376
2023-05-04T08:27:37.334Z,67.3098
2023-05-04T08:28:37.736Z,66.7012
2023-05-04T08:29:38.178Z,65.7657
2023-05-04T08:30:38.639Z,64.9068
2023-05-04T08:31:39.059Z,65.4153
2023-05-04T08:32:39.480Z,65.5472
2023-05-04T08:33:39.876Z,65.8553
2023-05-04T08:34:40.255Z,66.4141
2023-05-04T08:35:40.726Z,67.2790
2023-05-04T08:36:41.087Z,66.8115
2023-05-04T08:37:41.541Z,67.0564
2023-05-04T08:38:41.985Z,67.5196
2023-05-04T08:39:42.372Z,65.4405
2023-05-04T08:40:42.833Z,65.3367
2023-05-04T08:41:43.260Z,65.7537
2023-05-04T08:42:43.654Z,66.1574
2023-05-04T08:43:44.090Z,66.1677
2023-05-04T08:44:44.481Z,66.5336
2023-05-04T08:45:44.961Z,65.3536
2023-05-04T08:46:45.379Z,64.4147
2023-05-04T08:47:45.845Z,63.9625
2023-05-04T08:48:46.227Z,65.9180
2023-05-04T08:49:46.626Z,65.8370
2023-05-04T08:50:47.044Z,65.4660
2023-05-04T08:51:47.481Z,65.5739
2023-05-04T08:52:47.883Z,64.2602
2023-05-04T08:53:48.301Z,64.7579
2023-05-04T08:54:48.700Z,64.2237
2023-05-04T08:55:49.147Z,65.4617
2023-05-04T08:56:49.549Z,65.8649
2023-05-04T08:57:51.158Z,66.4876
2023-05-04T08:58:51.626Z,64.7997
2023-05-04T08:59:52.079Z,63.8036
2023-05-04T09:00:52.579Z,65.6618
2023-05-04T09:01:53.025Z,62.8216
2023-05-04T09:02:53.540Z,62.7342
2023-05-04T09:03:54.111Z,63.2313
2023-05-04T09:04:54.583Z,64.6121
2023-05-04T09:05:55.052Z,63.5734
2023-05-04T09:06:55.471Z,64.1933
2023-05-04T09:07:55.917Z,63.7797
2023-05-04T09:08:56.334Z,61.3746
2023-05-04T09:09:56.739Z,60.9528
2023-05-04T09:10:57.139Z,62.4118
2023-05-04T09:11:57.578Z,62.3634
2023-05-04T09:12:58.200Z,64.2244
2023-05-04T09:13:58.627Z,64.5235
2023-05-04T09:14:59.025Z,63.8445
2023-05-04T09:15:59.462Z,63.2252
2023-05-04T09:16:59.877Z,62.7601
2023-05-04T09:18:00.479Z,63.6929
2023-05-04T09:19:00.867Z,62.8834
2023-05-04T09:20:01.398Z,62.2696
2023-05-04T09:21:01.824Z,62.6424
2023-05-04T09:22:02.205Z,62.7752
2023-05-04T09:23:02.589Z,63.3895
2023-05-04T09:24:03.008Z,62.7049
2023-05-04T09:25:03.661Z,62.3857
2023-05-04T09:26:04.175Z,63.1568
2023-05-04T09:27:04.580Z,62.1864
2023-05-04T09:28:05.098Z,62.9537
2023-05-04T09:29:05.502Z,62.2081
2023-05-04T09:30:05.934Z,62.1019
2023-05-04T09:31:06.356Z,63.1708
2023-05-04T09:32:06.770Z,64.9293
2023-05-04T09:33:07.162Z,67.1247
2023-05-04T09:34:07.582Z,64.9091
2023-05-04T09:35:09.519Z,62.4162
2023-05-04T09:36:11.107Z,62.9717
2023-05-04T09:37:11.558Z,64.1104
2023-05-04T09:38:11.950Z,63.0293
2023-05-04T09:39:12.391Z,63.4613
2023-05-04T09:40:12.797Z,62.9475
2023-05-04T09:41:13.182Z,62.6329
2023-05-04T09:42:13.583Z,62.9987
2023-05-04T09:43:13.976Z,65.3791
2023-05-04T09:44:14.441Z,63.4319
2023-05-04T09:45:14.877Z,62.8092
2023-05-04T09:46:15.292Z,63.1947
2023-05-04T09:47:15.681Z,61.2414
2023-05-04T09:48:16.097Z,59.9066
2023-05-04T09:49:16.489Z,59.6684
2023-05-04T09:50:20.124Z,59.8271
2023-05-04T09:51:17.932Z,62.1081
2023-05-04T09:52:18.323Z,62.3827
2023-05-04T09:53:18.770Z,63.0706
2023-05-04T09:54:19.177Z,61.5395
2023-05-04T09:55:19.606Z,60.6496
2023-05-04T09:56:20.015Z,61.3979
2023-05-04T09:57:20.438Z,62.3995
2023-05-04T09:58:20.847Z,60.5584
2023-05-04T09:59:21.278Z,60.6439
2023-05-04T10:00:21.688Z,59.3625
2023-05-04T10:01:22.138Z,62.2150
2023-05-04T10:02:23.525Z,64.3056
2023-05-04T10:03:24.175Z,64.4110
2023-05-04T10:04:24.572Z,62.6139
2023-05-04T10:05:25.048Z,60.2112
2023-05-04T10:06:25.455Z,61.0960
2023-05-04T10:07:25.850Z,61.4314
2023-05-04T10:08:26.244Z,61.2838
2023-05-04T10:09:26.680Z,61.0387
2023-05-04T10:10:27.156Z,60.4168
2023-05-04T10:11:27.576Z,60.4633
2023-05-04T10:12:28.001Z,60.9105
2023-05-04T10:13:28.394Z,60.5187
2023-05-04T10:14:28.810Z,59.8574
2023-05-04T10:15:29.212Z,59.8494
2023-05-04T10:16:29.813Z,60.0584
2023-05-04T10:17:30.176Z,60.2016
2023-05-04T10:18:30.594Z,60.8937
2023-05-04T10:19:30.995Z,60.2863
2023-05-04T10:20:31.409Z,60.4280
2023-05-04T10:21:31.828Z,59.8362
2023-05-04T10:22:32.293Z,60.0286
2023-05-04T10:23:32.698Z,58.3325
2023-05-04T10:24:33.090Z,61.0417
2023-05-04T10:25:33.517Z,58.9076
2023-05-04T10:26:33.952Z,59.5655
2023-05-04T10:27:34.349Z,58.0252
2023-05-04T10:28:34.783Z,57.3494
2023-05-04T10:29:35.192Z,57.2529
2023-05-04T10:30:35.609Z,57.0743
2023-05-04T10:31:36.072Z,58.1860
2023-05-04T10:32:36.479Z,58.4552
2023-05-04T10:33:36.883Z,57.4589
2023-05-04T10:34:37.297Z,57.7122
2023-05-04T10:35:37.712Z,57.7090
2023-05-04T10:36:38.148Z,58.2209
2023-05-04T10:37:38.549Z,58.5326
2023-05-04T10:38:39.014Z,59.0779
2023-05-04T10:39:39.407Z,58.2667
2023-05-04T10:40:39.800Z,57.9062
2023-05-04T10:41:40.250Z,57.7380
2023-05-04T10:42:40.654Z,56.5174
2023-05-04T10:43:41.080Z,57.2435
2023-05-04T10:44:41.461Z,58.5810
2023-05-04T10:45:41.930Z,58.7494
2023-05-04T10:46:42.454Z,58.1430
2023-05-04T10:47:42.898Z,57.7839
2023-05-04T10:48:43.302Z,57.1033
2023-05-04T10:49:43.739Z,55.9433
2023-05-04T10:50:44.174Z,56.8964
2023-05-04T10:51:49.457Z,55.1928
2023-05-04T10:52:47.729Z,55.1475
2023-05-04T10:53:48.171Z,54.9793
2023-05-04T10:54:48.517Z,56.9861
2023-05-04T10:55:48.959Z,55.9905
2023-05-04T10:56:49.343Z,55.4928
2023-05-04T10:57:49.785Z,53.8044
2023-05-04T10:58:50.181Z,54.1700
2023-05-04T10:59:50.609Z,54.3976
2023-05-04T11:00:51.038Z,53.9214
2023-05-04T11:01:51.447Z,53.0427
2023-05-04T11:02:52.033Z,52.4629
2023-05-04T11:03:52.542Z,52.9778
2023-05-04T11:04:52.910Z,54.5229
2023-05-04T11:05:53.364Z,54.1549
2023-05-04T11:06:53.754Z,53.2977
2023-05-04T11:07:54.170Z,50.8436
2023-05-04T11:08:54.566Z,52.8189
2023-05-04T11:09:54.962Z,52.1687
2023-05-04T11:10:55.431Z,50.2681
2023-05-04T11:11:55.837Z,49.5778
2023-05-04T11:12:56.245Z,50.3326
2023-05-04T11:13:56.657Z,51.4512
2023-05-04T11:14:57.074Z,52.4557
2023-05-04T11:15:57.486Z,56.2447
2023-05-04T11:16:57.965Z,54.6821
2023-05-04T11:17:58.383Z,56.4352
2023-05-04T11:18:58.884Z,58.7160
2023-05-04T11:19:59.214Z,57.7823
2023-05-04T11:20:59.652Z,56.7629
2023-05-04T11:22:00.108Z,60.1550
2023-05-04T11:23:00.502Z,59.1732
2023-05-04T11:24:00.923Z,57.4534
2023-05-04T11:25:01.317Z,58.5685
2023-05-04T11:26:01.813Z,56.8672
2023-05-04T11:27:02.181Z,55.7967
2023-05-04T11:28:02.641Z,55.2153
2023-05-04T11:29:03.057Z,54.7272
2023-05-04T11:30:03.559Z,51.5669
2023-05-04T11:31:04.027Z,49.1285
2023-05-04T11:32:04.478Z,50.4901
2023-05-04T11:33:04.879Z,49.4382
2023-05-04T11:34:05.378Z,47.6107
2023-05-04T11:35:05.897Z,48.3544
2023-05-04T11:36:06.392Z,47.6279
2023-05-04T11:37:06.806Z,48.5762
2023-05-04T11:38:07.250Z,50.9310
2023-05-04T11:39:07.703Z,48.0112
2023-05-04T11:40:08.109Z,45.8665
2023-05-04T11:41:08.486Z,48.8653
2023-05-04T11:42:08.964Z,47.0287
2023-05-04T11:43:09.356Z,45.7111
2023-05-04T11:44:09.763Z,44.2758
2023-05-04T11:45:10.240Z,43.6846
2023-05-04T11:46:10.657Z,45.1102
2023-05-04T11:47:11.007Z,47.9059
2023-05-04T11:48:11.605Z,45.5797
2023-05-04T11:49:11.977Z,43.9426
2023-05-04T11:50:12.410Z,43.6484
2023-05-04T11:51:12.835Z,42.1426
2023-05-04T11:52:13.236Z,43.5788
2023-05-04T11:53:13.665Z,45.6045
2023-05-04T11:54:14.168Z,44.3909
2023-05-04T11:55:14.553Z,44.1264
2023-05-04T11:56:14.942Z,46.0410
2023-05-04T11:57:15.347Z,44.5965
2023-05-04T11:58:15.781Z,42.8183
2023-05-04T11:59:16.167Z,41.9601
2023-05-04T12:00:16.580Z,40.8474
2023-05-04T12:01:17.002Z,41.5278
2023-05-04T12:02:17.461Z,42.2737
2023-05-04T12:03:18.016Z,41.0695
2023-05-04T12:04:18.559Z,39.5222
2023-05-04T12:05:19.024Z,39.9220
2023-05-04T12:06:19.420Z,44.0796
2023-05-04T12:07:19.823Z,40.8609
2023-05-04T12:08:20.276Z,42.6570
2023-05-04T12:09:20.630Z,45.3335
2023-05-04T12:10:21.107Z,41.5042